sensor_id;sensor_type;location;lat;lon;timestamp;pressure;altitude;pressure_sealevel;temperature;humidity
16451;BME280;12243;42.708;23.310;2022-08-19T00:01:18;94778.91;;;22.88;62.35
16451;BME280;12243;42.708;23.310;2022-08-19T00:03:47;94776.25;;;22.95;62.59
16451;BME280;12243;42.708;23.310;2022-08-19T00:06:14;94777.06;;;22.89;62.27
16451;BME280;12243;42.708;23.310;2022-08-19T00:08:41;94779.50;;;22.83;62.75
16451;BME280;12243;42.708;23.310;2022-08-19T00:11:08;94790.97;;;22.84;62.80
16451;BME280;12243;42.708;23.310;2022-08-19T00:13:36;94787.06;;;22.87;62.17
16451;BME280;12243;42.708;23.310;2022-08-19T00:16:03;94781.34;;;22.90;62.26
16451;BME280;12243;42.708;23.310;2022-08-19T00:18:31;94789.94;;;22.92;62.36
16451;BME280;12243;42.708;23.310;2022-08-19T00:21:00;94804.03;;;22.86;62.60
16451;BME280;12243;42.708;23.310;2022-08-19T00:23:27;94802.19;;;22.79;63.24
16451;BME280;12243;42.708;23.310;2022-08-19T00:25:55;94794.44;;;22.85;63.32
16451;BME280;12243;42.708;23.310;2022-08-19T00:28:22;94798.53;;;22.80;63.48
16451;BME280;12243;42.708;23.310;2022-08-19T00:30:49;94796.28;;;22.84;63.53
16451;BME280;12243;42.708;23.310;2022-08-19T00:33:17;94794.66;;;22.70;63.93
16451;BME280;12243;42.708;23.310;2022-08-19T00:35:44;94786.94;;;22.55;64.36
16451;BME280;12243;42.708;23.310;2022-08-19T00:38:12;94785.16;;;22.42;64.75
16451;BME280;12243;42.708;23.310;2022-08-19T00:40:39;94782.69;;;22.41;64.26
16451;BME280;12243;42.708;23.310;2022-08-19T00:43:08;94777.81;;;22.38;64.73
16451;BME280;12243;42.708;23.310;2022-08-19T00:45:35;94787.38;;;22.45;64.23
16451;BME280;12243;42.708;23.310;2022-08-19T00:48:03;94779.22;;;22.40;64.36
16451;BME280;12243;42.708;23.310;2022-08-19T00:50:30;94786.78;;;22.37;64.55
16451;BME280;12243;42.708;23.310;2022-08-19T00:52:58;94782.72;;;22.27;65.12
16451;BME280;12243;42.708;23.310;2022-08-19T00:55:26;94776.00;;;22.18;65.64
16451;BME280;12243;42.708;23.310;2022-08-19T00:57:59;94779.66;;;22.17;65.61
16451;BME280;12243;42.708;23.310;2022-08-19T01:00:27;94778.22;;;22.08;65.72
16451;BME280;12243;42.708;23.310;2022-08-19T01:02:54;94779.25;;;22.00;66.45
16451;BME280;12243;42.708;23.310;2022-08-19T01:05:27;94786.78;;;22.03;66.71
16451;BME280;12243;42.708;23.310;2022-08-19T01:07:57;94780.88;;;21.95;67.25
16451;BME280;12243;42.708;23.310;2022-08-19T01:10:29;94784.34;;;21.88;67.63
16451;BME280;12243;42.708;23.310;2022-08-19T01:12:58;94784.97;;;21.84;67.86
16451;BME280;12243;42.708;23.310;2022-08-19T01:15:29;94786.16;;;21.81;68.36
16451;BME280;12243;42.708;23.310;2022-08-19T01:17:57;94789.44;;;21.83;68.52
16451;BME280;12243;42.708;23.310;2022-08-19T01:20:26;94783.75;;;21.86;68.13
16451;BME280;12243;42.708;23.310;2022-08-19T01:22:56;94791.06;;;21.84;68.17
16451;BME280;12243;42.708;23.310;2022-08-19T01:25:29;94779.66;;;21.84;68.00
16451;BME280;12243;42.708;23.310;2022-08-19T01:27:56;94777.63;;;21.73;68.37
16451;BME280;12243;42.708;23.310;2022-08-19T01:30:26;94774.75;;;21.74;68.07
16451;BME280;12243;42.708;23.310;2022-08-19T01:32:54;94787.38;;;21.72;68.11
16451;BME280;12243;42.708;23.310;2022-08-19T01:35:23;94781.88;;;21.60;68.85
16451;BME280;12243;42.708;23.310;2022-08-19T01:37:52;94781.03;;;21.47;68.73
16451;BME280;12243;42.708;23.310;2022-08-19T01:40:23;94773.69;;;21.35;68.78
16451;BME280;12243;42.708;23.310;2022-08-19T01:42:51;94777.09;;;21.29;69.56
16451;BME280;12243;42.708;23.310;2022-08-19T01:45:20;94775.47;;;21.28;69.78
16451;BME280;12243;42.708;23.310;2022-08-19T01:47:48;94780.81;;;21.35;70.03
16451;BME280;12243;42.708;23.310;2022-08-19T01:50:15;94782.00;;;21.32;70.18
16451;BME280;12243;42.708;23.310;2022-08-19T01:52:43;94785.31;;;21.34;70.10
16451;BME280;12243;42.708;23.310;2022-08-19T01:55:12;94787.25;;;21.26;70.52
16451;BME280;12243;42.708;23.310;2022-08-19T01:57:44;94788.47;;;21.23;70.86
16451;BME280;12243;42.708;23.310;2022-08-19T02:00:13;94784.50;;;21.34;70.42
16451;BME280;12243;42.708;23.310;2022-08-19T02:02:41;94790.97;;;21.31;71.02
16451;BME280;12243;42.708;23.310;2022-08-19T02:05:09;94790.59;;;21.34;70.92
16451;BME280;12243;42.708;23.310;2022-08-19T02:07:37;94793.25;;;21.34;71.32
16451;BME280;12243;42.708;23.310;2022-08-19T02:10:07;94793.06;;;21.43;70.59
16451;BME280;12243;42.708;23.310;2022-08-19T02:12:34;94786.13;;;21.42;70.75
16451;BME280;12243;42.708;23.310;2022-08-19T02:15:04;94788.53;;;21.36;70.94
16451;BME280;12243;42.708;23.310;2022-08-19T02:17:31;94787.69;;;21.29;nan
16451;BME280;12243;42.708;23.310;2022-08-19T02:19:58;94788.88;;;21.27;71.16
16451;BME280;12243;42.708;23.310;2022-08-19T02:22:25;94786.47;;;21.25;71.31
16451;BME280;12243;42.708;23.310;2022-08-19T02:24:52;94785.00;;;21.23;72.00
16451;BME280;12243;42.708;23.310;2022-08-19T02:27:19;94784.75;;;21.04;72.89
16451;BME280;12243;42.708;23.310;2022-08-19T02:29:47;94785.13;;;20.94;73.64
16451;BME280;12243;42.708;23.310;2022-08-19T02:32:17;94792.00;;;20.82;74.34
16451;BME280;12243;42.708;23.310;2022-08-19T02:34:44;94787.16;;;20.92;74.17
16451;BME280;12243;42.708;23.310;2022-08-19T02:37:11;94784.66;;;20.84;74.36
16451;BME280;12243;42.708;23.310;2022-08-19T02:39:52;94784.22;;;20.74;75.03
16451;BME280;12243;42.708;23.310;2022-08-19T02:42:19;94785.63;;;20.70;75.44
16451;BME280;12243;42.708;23.310;2022-08-19T02:44:46;94792.53;;;20.71;74.82
16451;BME280;12243;42.708;23.310;2022-08-19T02:47:13;94791.91;;;20.62;75.60
16451;BME280;12243;42.708;23.310;2022-08-19T02:49:41;94797.16;;;20.56;75.63
16451;BME280;12243;42.708;23.310;2022-08-19T02:52:08;94794.28;;;20.51;75.73
16451;BME280;12243;42.708;23.310;2022-08-19T02:54:36;94794.75;;;20.61;75.10
16451;BME280;12243;42.708;23.310;2022-08-19T02:57:04;94793.50;;;20.57;75.23
16451;BME280;12243;42.708;23.310;2022-08-19T02:59:31;94797.47;;;20.46;75.71
16451;BME280;12243;42.708;23.310;2022-08-19T03:01:58;94793.41;;;20.43;76.03
16451;BME280;12243;42.708;23.310;2022-08-19T03:04:25;94788.50;;;20.40;75.85
16451;BME280;12243;42.708;23.310;2022-08-19T03:06:53;94800.94;;;20.46;74.92
16451;BME280;12243;42.708;23.310;2022-08-19T03:09:20;94793.53;;;20.35;75.60
16451;BME280;12243;42.708;23.310;2022-08-19T03:11:47;94789.00;;;20.29;75.93
16451;BME280;12243;42.708;23.310;2022-08-19T03:14:14;94790.56;;;20.17;76.74
16451;BME280;12243;42.708;23.310;2022-08-19T03:16:44;94796.88;;;20.16;76.65
16451;BME280;12243;42.708;23.310;2022-08-19T03:19:11;94790.56;;;20.17;76.59
16451;BME280;12243;42.708;23.310;2022-08-19T03:21:38;94801.78;;;20.19;76.79
16451;BME280;12243;42.708;23.310;2022-08-19T03:24:08;94796.25;;;20.14;76.88
16451;BME280;12243;42.708;23.310;2022-08-19T03:26:38;94792.84;;;20.20;77.16
16451;BME280;12243;42.708;23.310;2022-08-19T03:29:05;94798.50;;;20.17;77.17
16451;BME280;12243;42.708;23.310;2022-08-19T03:31:34;94799.00;;;20.27;77.09
16451;BME280;12243;42.708;23.310;2022-08-19T03:34:01;94795.72;;;20.25;77.10
16451;BME280;12243;42.708;23.310;2022-08-19T03:36:28;94805.03;;;20.21;77.13
16451;BME280;12243;42.708;23.310;2022-08-19T03:38:56;94801.00;;;20.25;77.25
16451;BME280;12243;42.708;23.310;2022-08-19T03:41:27;94804.66;;;20.24;77.05
16451;BME280;12243;42.708;23.310;2022-08-19T03:43:54;94812.97;;;20.21;77.07
16451;BME280;12243;42.708;23.310;2022-08-19T03:46:23;94807.91;;;20.19;77.50
16451;BME280;12243;42.708;23.310;2022-08-19T03:48:51;94815.28;;;20.31;77.23
16451;BME280;12243;42.708;23.310;2022-08-19T03:51:21;94813.28;;;20.39;76.70
16451;BME280;12243;42.708;23.310;2022-08-19T03:53:50;94813.72;;;20.43;76.65
16451;BME280;12243;42.708;23.310;2022-08-19T03:56:17;94822.50;;;20.43;76.61
16451;BME280;12243;42.708;23.310;2022-08-19T03:58:45;94815.94;;;20.39;76.91
16451;BME280;12243;42.708;23.310;2022-08-19T04:01:16;94823.88;;;20.33;77.30
16451;BME280;12243;42.708;23.310;2022-08-19T04:03:43;94830.03;;;20.46;77.12
16451;BME280;12243;42.708;23.310;2022-08-19T04:06:12;94836.34;;;20.45;77.28
16451;BME280;12243;42.708;23.310;2022-08-19T04:08:40;94823.63;;;20.56;76.76
16451;BME280;12243;42.708;23.310;2022-08-19T04:11:08;94829.75;;;20.63;76.83
16451;BME280;12243;42.708;23.310;2022-08-19T04:13:35;94825.19;;;20.85;76.29
16451;BME280;12243;42.708;23.310;2022-08-19T04:16:03;94831.22;;;21.07;75.46
16451;BME280;12243;42.708;23.310;2022-08-19T04:18:31;94828.91;;;21.38;74.08
16451;BME280;12243;42.708;23.310;2022-08-19T04:20:58;94825.91;;;21.68;72.88
16451;BME280;12243;42.708;23.310;2022-08-19T04:23:25;94837.19;;;21.97;71.52
16451;BME280;12243;42.708;23.310;2022-08-19T04:25:54;94837.63;;;22.20;70.47
16451;BME280;12243;42.708;23.310;2022-08-19T04:28:22;94842.94;;;22.33;69.78
16451;BME280;12243;42.708;23.310;2022-08-19T04:30:52;94846.38;;;22.54;68.92
16451;BME280;12243;42.708;23.310;2022-08-19T04:33:23;94845.72;;;22.78;68.20
16451;BME280;12243;42.708;23.310;2022-08-19T04:35:51;94851.22;;;22.97;66.99
16451;BME280;12243;42.708;23.310;2022-08-19T04:38:20;94853.84;;;23.10;66.22
16451;BME280;12243;42.708;23.310;2022-08-19T04:40:50;94843.97;;;23.24;65.01
16451;BME280;12243;42.708;23.310;2022-08-19T04:43:37;94845.94;;;23.42;64.50
16451;BME280;12243;42.708;23.310;2022-08-19T04:46:05;94849.53;;;23.61;63.42
16451;BME280;12243;42.708;23.310;2022-08-19T04:48:33;94840.91;;;23.72;63.03
16451;BME280;12243;42.708;23.310;2022-08-19T04:51:00;94850.47;;;23.80;62.79
16451;BME280;12243;42.708;23.310;2022-08-19T04:53:32;94848.97;;;23.90;62.85
16451;BME280;12243;42.708;23.310;2022-08-19T04:56:02;94843.59;;;23.97;62.13
16451;BME280;12243;42.708;23.310;2022-08-19T04:58:30;94852.63;;;23.96;62.44
16451;BME280;12243;42.708;23.310;2022-08-19T05:00:57;94844.09;;;24.12;61.92
16451;BME280;12243;42.708;23.310;2022-08-19T05:03:25;94845.81;;;24.32;61.28
16451;BME280;12243;42.708;23.310;2022-08-19T05:05:54;94848.09;;;24.53;60.61
16451;BME280;12243;42.708;23.310;2022-08-19T05:08:21;94848.00;;;24.66;59.89
16451;BME280;12243;42.708;23.310;2022-08-19T05:10:50;94858.88;;;24.83;59.55
16451;BME280;12243;42.708;23.310;2022-08-19T05:13:19;94848.47;;;25.00;58.83
16451;BME280;12243;42.708;23.310;2022-08-19T05:15:56;94851.22;;;25.12;58.50
16451;BME280;12243;42.708;23.310;2022-08-19T05:18:23;94854.75;;;25.24;58.13
16451;BME280;12243;42.708;23.310;2022-08-19T05:21:17;94854.84;;;25.36;57.89
16451;BME280;12243;42.708;23.310;2022-08-19T05:24:02;94855.88;;;25.53;57.28
16451;BME280;12243;42.708;23.310;2022-08-19T05:26:33;94857.53;;;25.66;56.96
16451;BME280;12243;42.708;23.310;2022-08-19T05:29:00;94854.88;;;25.84;56.36
16451;BME280;12243;42.708;23.310;2022-08-19T05:31:26;94863.25;;;26.00;55.81
16451;BME280;12243;42.708;23.310;2022-08-19T05:33:53;94852.84;;;26.10;55.54
16451;BME280;12243;42.708;23.310;2022-08-19T05:36:22;94854.25;;;26.24;54.63
16451;BME280;12243;42.708;23.310;2022-08-19T05:38:49;94853.44;;;26.24;54.49
16451;BME280;12243;42.708;23.310;2022-08-19T05:41:18;94860.28;;;26.20;54.82
16451;BME280;12243;42.708;23.310;2022-08-19T05:43:46;94855.06;;;26.25;55.03
16451;BME280;12243;42.708;23.310;2022-08-19T05:46:18;94852.19;;;26.26;54.88
16451;BME280;12243;42.708;23.310;2022-08-19T05:48:45;94857.06;;;26.41;54.18
16451;BME280;12243;42.708;23.310;2022-08-19T05:51:12;94863.28;;;26.65;53.37
16451;BME280;12243;42.708;23.310;2022-08-19T05:53:41;94858.28;;;26.80;52.44
16451;BME280;12243;42.708;23.310;2022-08-19T05:56:11;94859.31;;;26.91;52.52
16451;BME280;12243;42.708;23.310;2022-08-19T05:58:39;94859.06;;;27.04;51.95
16451;BME280;12243;42.708;23.310;2022-08-19T06:01:10;94856.06;;;27.13;51.82
16451;BME280;12243;42.708;23.310;2022-08-19T06:03:38;94865.47;;;27.27;51.37
16451;BME280;12243;42.708;23.310;2022-08-19T06:06:05;94869.13;;;27.49;50.08
16451;BME280;12243;42.708;23.310;2022-08-19T06:08:33;94865.78;;;27.71;49.68
16451;BME280;12243;42.708;23.310;2022-08-19T06:11:18;94863.34;;;27.81;48.77
16451;BME280;12243;42.708;23.310;2022-08-19T06:13:46;94856.84;;;27.77;48.70
16451;BME280;12243;42.708;23.310;2022-08-19T06:16:16;94862.88;;;27.84;46.03
16451;BME280;12243;42.708;23.310;2022-08-19T06:18:49;94870.03;;;27.95;47.19
16451;BME280;12243;42.708;23.310;2022-08-19T06:21:18;94865.84;;;28.16;46.24
16451;BME280;12243;42.708;23.310;2022-08-19T06:23:45;94863.13;;;28.28;46.20
16451;BME280;12243;42.708;23.310;2022-08-19T06:26:15;94867.63;;;28.56;45.78
16451;BME280;12243;42.708;23.310;2022-08-19T06:28:42;94867.34;;;28.91;44.99
16451;BME280;12243;42.708;23.310;2022-08-19T06:31:12;94862.53;;;28.93;44.72
16451;BME280;12243;42.708;23.310;2022-08-19T06:33:40;94865.53;;;29.14;44.27
16451;BME280;12243;42.708;23.310;2022-08-19T06:36:08;94864.38;;;29.27;44.06
16451;BME280;12243;42.708;23.310;2022-08-19T06:38:42;94859.94;;;29.37;43.83
16451;BME280;12243;42.708;23.310;2022-08-19T06:41:08;94869.09;;;29.41;42.79
16451;BME280;12243;42.708;23.310;2022-08-19T06:43:37;94869.25;;;29.52;43.03
16451;BME280;12243;42.708;23.310;2022-08-19T06:46:11;94866.13;;;29.60;43.47
16451;BME280;12243;42.708;23.310;2022-08-19T06:48:38;94865.75;;;29.73;43.37
16451;BME280;12243;42.708;23.310;2022-08-19T06:51:06;94867.84;;;29.93;42.67
16451;BME280;12243;42.708;23.310;2022-08-19T06:53:33;94864.47;;;30.03;42.93
16451;BME280;12243;42.708;23.310;2022-08-19T06:56:00;94861.34;;;30.16;42.44
16451;BME280;12243;42.708;23.310;2022-08-19T06:58:27;94858.94;;;30.14;42.35
16451;BME280;12243;42.708;23.310;2022-08-19T07:00:59;94863.94;;;30.28;42.29
16451;BME280;12243;42.708;23.310;2022-08-19T07:03:29;94866.72;;;30.43;41.96
16451;BME280;12243;42.708;23.310;2022-08-19T07:05:56;94878.75;;;30.68;41.20
16451;BME280;12243;42.708;23.310;2022-08-19T07:08:24;94867.66;;;30.91;40.79
16451;BME280;12243;42.708;23.310;2022-08-19T07:10:52;94872.03;;;31.02;40.19
16451;BME280;12243;42.708;23.310;2022-08-19T07:13:22;94877.00;;;31.21;40.42
16451;BME280;12243;42.708;23.310;2022-08-19T07:15:49;94877.75;;;31.16;40.59
16451;BME280;12243;42.708;23.310;2022-08-19T07:18:20;94874.56;;;31.19;40.41
16451;BME280;12243;42.708;23.310;2022-08-19T07:20:47;94875.75;;;31.34;39.87
16451;BME280;12243;42.708;23.310;2022-08-19T07:23:14;94885.38;;;31.24;40.64
16451;BME280;12243;42.708;23.310;2022-08-19T07:25:41;94873.97;;;31.12;40.76
16451;BME280;12243;42.708;23.310;2022-08-19T07:28:08;94880.00;;;31.24;40.20
16451;BME280;12243;42.708;23.310;2022-08-19T07:30:38;94873.59;;;31.36;40.23
16451;BME280;12243;42.708;23.310;2022-08-19T07:33:06;94872.63;;;31.62;39.56
16451;BME280;12243;42.708;23.310;2022-08-19T07:35:34;94872.94;;;31.76;39.51
16451;BME280;12243;42.708;23.310;2022-08-19T07:38:01;94869.53;;;31.96;39.37
16451;BME280;12243;42.708;23.310;2022-08-19T07:40:30;94862.53;;;32.00;38.34
16451;BME280;12243;42.708;23.310;2022-08-19T07:42:57;94868.94;;;31.84;38.63
16451;BME280;12243;42.708;23.310;2022-08-19T07:45:24;94864.59;;;31.67;39.52
16451;BME280;12243;42.708;23.310;2022-08-19T07:47:52;94862.41;;;31.59;40.03
16451;BME280;12243;42.708;23.310;2022-08-19T07:50:20;94865.38;;;31.63;39.53
16451;BME280;12243;42.708;23.310;2022-08-19T07:52:48;94864.50;;;31.47;39.19
16451;BME280;12243;42.708;23.310;2022-08-19T07:55:19;94865.97;;;31.27;39.28
16451;BME280;12243;42.708;23.310;2022-08-19T07:57:46;94866.09;;;31.43;39.34
16451;BME280;12243;42.708;23.310;2022-08-19T08:00:14;94862.41;;;31.59;38.86
16451;BME280;12243;42.708;23.310;2022-08-19T08:02:41;94861.38;;;31.70;39.06
16451;BME280;12243;42.708;23.310;2022-08-19T08:05:09;94865.47;;;31.93;38.29
16451;BME280;12243;42.708;23.310;2022-08-19T08:07:54;94869.31;;;32.23;37.47
16451;BME280;12243;42.708;23.310;2022-08-19T08:10:39;94865.56;;;32.39;37.22
16451;BME280;12243;42.708;23.310;2022-08-19T08:13:06;94859.94;;;32.46;38.37
16451;BME280;12243;42.708;23.310;2022-08-19T08:15:33;94855.63;;;32.60;37.32
16451;BME280;12243;42.708;23.310;2022-08-19T08:18:02;94854.53;;;32.77;37.02
16451;BME280;12243;42.708;23.310;2022-08-19T08:20:29;94854.78;;;33.11;36.12
16451;BME280;12243;42.708;23.310;2022-08-19T08:22:58;94845.78;;;33.36;35.92
16451;BME280;12243;42.708;23.310;2022-08-19T08:25:42;94839.75;;;33.64;35.28
16451;BME280;12243;42.708;23.310;2022-08-19T08:28:09;94847.25;;;33.78;34.34
16451;BME280;12243;42.708;23.310;2022-08-19T08:30:36;94842.03;;;34.02;33.90
16451;BME280;12243;42.708;23.310;2022-08-19T08:33:06;94835.13;;;34.25;33.64
16451;BME280;12243;42.708;23.310;2022-08-19T08:35:33;94840.13;;;34.42;33.42
16451;BME280;12243;42.708;23.310;2022-08-19T08:38:03;94839.25;;;34.51;32.79
16451;BME280;12243;42.708;23.310;2022-08-19T08:40:38;94842.97;;;34.60;32.02
16451;BME280;12243;42.708;23.310;2022-08-19T08:43:09;94841.38;;;34.59;32.17
16451;BME280;12243;42.708;23.310;2022-08-19T08:45:43;94836.34;;;34.77;32.47
16451;BME280;12243;42.708;23.310;2022-08-19T08:48:18;94833.47;;;34.92;32.71
16451;BME280;12243;42.708;23.310;2022-08-19T08:50:47;94832.78;;;35.11;32.33
16451;BME280;12243;42.708;23.310;2022-08-19T08:53:20;94831.66;;;35.36;31.59
16451;BME280;12243;42.708;23.310;2022-08-19T08:55:48;94827.22;;;35.26;31.36
16451;BME280;12243;42.708;23.310;2022-08-19T08:58:20;94828.03;;;35.21;31.12
16451;BME280;12243;42.708;23.310;2022-08-19T09:00:51;94824.88;;;35.38;31.19
16451;BME280;12243;42.708;23.310;2022-08-19T09:03:24;94819.31;;;35.53;29.99
16451;BME280;12243;42.708;23.310;2022-08-19T09:05:57;94823.44;;;35.46;30.43
16451;BME280;12243;42.708;23.310;2022-08-19T09:08:35;94816.38;;;35.26;29.85
16451;BME280;12243;42.708;23.310;2022-08-19T09:11:09;94812.09;;;35.44;30.09
16451;BME280;12243;42.708;23.310;2022-08-19T09:13:44;94809.88;;;35.51;29.65
16451;BME280;12243;42.708;23.310;2022-08-19T09:16:17;94813.78;;;35.83;29.42
16451;BME280;12243;42.708;23.310;2022-08-19T09:18:48;94809.69;;;36.04;28.29
16451;BME280;12243;42.708;23.310;2022-08-19T09:21:19;94810.41;;;35.91;28.00
16451;BME280;12243;42.708;23.310;2022-08-19T09:23:49;94800.72;;;35.66;28.39
16451;BME280;12243;42.708;23.310;2022-08-19T09:26:19;94795.84;;;35.68;28.45
16451;BME280;12243;42.708;23.310;2022-08-19T09:28:48;94797.44;;;35.69;27.76
16451;BME280;12243;42.708;23.310;2022-08-19T09:31:17;94797.50;;;35.83;27.37
16451;BME280;12243;42.708;23.310;2022-08-19T09:33:45;94795.47;;;35.93;27.43
16451;BME280;12243;42.708;23.310;2022-08-19T09:36:16;94790.09;;;36.26;26.48
16451;BME280;12243;42.708;23.310;2022-08-19T09:38:44;94787.31;;;36.31;26.99
16451;BME280;12243;42.708;23.310;2022-08-19T09:41:14;94787.38;;;36.45;26.58
16451;BME280;12243;42.708;23.310;2022-08-19T09:43:45;94789.53;;;36.48;25.73
16451;BME280;12243;42.708;23.310;2022-08-19T09:46:13;94781.00;;;36.55;25.32
16451;BME280;12243;42.708;23.310;2022-08-19T09:48:42;94786.84;;;36.62;25.67
16451;BME280;12243;42.708;23.310;2022-08-19T09:51:11;94781.91;;;36.97;25.29
16451;BME280;12243;42.708;23.310;2022-08-19T09:53:41;94779.69;;;37.26;24.47
16451;BME280;12243;42.708;23.310;2022-08-19T09:56:09;94783.72;;;37.15;25.33
16451;BME280;12243;42.708;23.310;2022-08-19T09:58:38;94778.88;;;37.39;25.20
16451;BME280;12243;42.708;23.310;2022-08-19T10:01:06;94775.84;;;37.27;24.57
16451;BME280;12243;42.708;23.310;2022-08-19T10:03:35;94773.44;;;37.12;24.51
16451;BME280;12243;42.708;23.310;2022-08-19T10:06:04;94770.63;;;37.17;23.93
16451;BME280;12243;42.708;23.310;2022-08-19T10:08:34;94766.00;;;37.04;24.31
16451;BME280;12243;42.708;23.310;2022-08-19T10:11:03;94762.06;;;37.24;23.97
16451;BME280;12243;42.708;23.310;2022-08-19T10:13:31;94764.59;;;37.20;24.96
16451;BME280;12243;42.708;23.310;2022-08-19T10:16:06;94757.22;;;37.34;24.26
16451;BME280;12243;42.708;23.310;2022-08-19T10:18:33;94762.19;;;37.32;25.02
16451;BME280;12243;42.708;23.310;2022-08-19T10:21:06;94753.31;;;37.54;25.01
16451;BME280;12243;42.708;23.310;2022-08-19T10:23:37;94755.50;;;37.66;24.68
16451;BME280;12243;42.708;23.310;2022-08-19T10:26:05;94756.16;;;37.49;24.40
16451;BME280;12243;42.708;23.310;2022-08-19T10:28:33;94747.41;;;37.25;25.01
16451;BME280;12243;42.708;23.310;2022-08-19T10:31:08;94748.78;;;37.36;24.70
16451;BME280;12243;42.708;23.310;2022-08-19T10:33:36;94746.75;;;37.41;25.12
16451;BME280;12243;42.708;23.310;2022-08-19T10:36:06;94739.22;;;37.66;25.20
16451;BME280;12243;42.708;23.310;2022-08-19T10:38:34;94736.91;;;37.96;24.17
16451;BME280;12243;42.708;23.310;2022-08-19T10:41:07;94740.81;;;38.03;24.54
16451;BME280;12243;42.708;23.310;2022-08-19T10:43:34;94741.13;;;38.02;24.09
16451;BME280;12243;42.708;23.310;2022-08-19T10:46:04;94735.44;;;38.12;23.86
16451;BME280;12243;42.708;23.310;2022-08-19T10:48:32;94736.78;;;38.23;23.72
16451;BME280;12243;42.708;23.310;2022-08-19T10:51:00;94734.06;;;38.46;24.40
16451;BME280;12243;42.708;23.310;2022-08-19T10:53:44;94721.31;;;38.55;23.17
16451;BME280;12243;42.708;23.310;2022-08-19T10:56:11;94729.94;;;38.26;23.54
16451;BME280;12243;42.708;23.310;2022-08-19T10:58:56;94730.00;;;38.57;23.97
16451;BME280;12243;42.708;23.310;2022-08-19T11:01:23;94735.19;;;38.76;23.57
16451;BME280;12243;42.708;23.310;2022-08-19T11:03:51;94737.03;;;38.58;22.97
16451;BME280;12243;42.708;23.310;2022-08-19T11:06:19;94738.22;;;38.21;23.52
16451;BME280;12243;42.708;23.310;2022-08-19T11:08:46;94734.44;;;38.30;23.93
16451;BME280;12243;42.708;23.310;2022-08-19T11:11:13;94727.66;;;38.42;23.68
16451;BME280;12243;42.708;23.310;2022-08-19T11:13:40;94724.31;;;38.76;23.64
16451;BME280;12243;42.708;23.310;2022-08-19T11:16:11;94721.16;;;38.82;23.03
16451;BME280;12243;42.708;23.310;2022-08-19T11:18:41;94716.56;;;39.00;22.83
16451;BME280;12243;42.708;23.310;2022-08-19T11:21:13;94720.75;;;39.06;22.98
16451;BME280;12243;42.708;23.310;2022-08-19T11:23:42;94716.53;;;39.32;23.27
16451;BME280;12243;42.708;23.310;2022-08-19T11:26:10;94720.28;;;39.62;22.03
16451;BME280;12243;42.708;23.310;2022-08-19T11:28:37;94713.81;;;39.49;22.44
16451;BME280;12243;42.708;23.310;2022-08-19T11:31:09;94706.16;;;39.51;22.61
16451;BME280;12243;42.708;23.310;2022-08-19T11:33:36;94697.63;;;39.26;23.04
16451;BME280;12243;42.708;23.310;2022-08-19T11:36:04;94698.50;;;38.73;22.65
16451;BME280;12243;42.708;23.310;2022-08-19T11:38:32;94698.56;;;38.51;23.36
16451;BME280;12243;42.708;23.310;2022-08-19T11:41:03;94701.22;;;38.73;23.76
16451;BME280;12243;42.708;23.310;2022-08-19T11:43:30;94692.25;;;39.13;23.24
16451;BME280;12243;42.708;23.310;2022-08-19T11:45:57;94695.34;;;39.28;22.81
16451;BME280;12243;42.708;23.310;2022-08-19T11:48:25;94690.41;;;38.91;22.46
16451;BME280;12243;42.708;23.310;2022-08-19T11:50:53;94692.69;;;38.57;23.67
16451;BME280;12243;42.708;23.310;2022-08-19T11:53:20;94682.94;;;38.65;23.25
16451;BME280;12243;42.708;23.310;2022-08-19T11:55:50;94682.47;;;39.03;23.01
16451;BME280;12243;42.708;23.310;2022-08-19T11:58:21;94685.44;;;39.50;23.12
16451;BME280;12243;42.708;23.310;2022-08-19T12:00:48;94681.63;;;39.77;21.87
16451;BME280;12243;42.708;23.310;2022-08-19T12:03:15;94677.75;;;40.04;22.13
16451;BME280;12243;42.708;23.310;2022-08-19T12:05:42;94680.50;;;40.04;21.74
16451;BME280;12243;42.708;23.310;2022-08-19T12:08:09;94664.72;;;40.10;21.98
16451;BME280;12243;42.708;23.310;2022-08-19T12:10:38;94665.91;;;40.00;22.26
16451;BME280;12243;42.708;23.310;2022-08-19T12:13:08;94664.72;;;40.10;21.70
16451;BME280;12243;42.708;23.310;2022-08-19T12:15:35;94656.41;;;40.06;21.74
16451;BME280;12243;42.708;23.310;2022-08-19T12:18:03;94664.28;;;39.99;21.95
16451;BME280;12243;42.708;23.310;2022-08-19T12:20:30;94652.41;;;39.95;21.83
16451;BME280;12243;42.708;23.310;2022-08-19T12:22:57;94651.78;;;39.98;21.74
16451;BME280;12243;42.708;23.310;2022-08-19T12:25:24;94648.06;;;40.11;22.45
16451;BME280;12243;42.708;23.310;2022-08-19T12:27:51;94641.75;;;40.37;21.99
16451;BME280;12243;42.708;23.310;2022-08-19T12:30:19;94639.91;;;40.67;21.48
16451;BME280;12243;42.708;23.310;2022-08-19T12:32:46;94644.25;;;40.98;21.02
16451;BME280;12243;42.708;23.310;2022-08-19T12:35:13;94639.69;;;40.81;21.26
16451;BME280;12243;42.708;23.310;2022-08-19T12:37:40;94633.31;;;40.98;21.05
16451;BME280;12243;42.708;23.310;2022-08-19T12:40:11;94631.22;;;41.03;20.98
16451;BME280;12243;42.708;23.310;2022-08-19T12:42:38;94637.97;;;40.97;20.85
16451;BME280;12243;42.708;23.310;2022-08-19T12:45:09;94630.25;;;40.99;20.80
16451;BME280;12243;42.708;23.310;2022-08-19T12:47:37;94634.94;;;40.60;21.21
16451;BME280;12243;42.708;23.310;2022-08-19T12:50:06;94632.75;;;40.45;21.24
16451;BME280;12243;42.708;23.310;2022-08-19T12:52:35;94629.88;;;40.33;21.35
16451;BME280;12243;42.708;23.310;2022-08-19T12:55:05;94622.19;;;40.35;21.76
16451;BME280;12243;42.708;23.310;2022-08-19T12:57:32;94617.66;;;40.39;21.27
16451;BME280;12243;42.708;23.310;2022-08-19T13:00:05;94619.00;;;40.62;21.41